Time;durP1;ratioP1;P1;durP2;ratioP2;P2;SDS_P1;SDS_P2;PMS_P1;PMS_P2;Temp;Humidity;BMP_temperature;BMP_pressure;BME280_temperature;BME280_humidity;BME280_pressure;Samples;Min_cycle;Max_cycle;Signal;HPM_P1;HPM_P2
2021/05/07 00:00:48;;;;;;;6.57;2.15;;;14.90;47.50;;;;;;4437397;29;20058;-77
2021/05/07 00:03:04;;;;;;;3.40;2.00;;;14.40;47.20;;;;;;4438574;29;20053;-75
2021/05/07 00:05:26;;;;;;;4.88;2.20;;;14.40;46.20;;;;;;4437368;29;20054;-74
2021/05/07 00:07:42;;;;;;;4.53;2.45;;;14.00;47.30;;;;;;4436912;29;20050;-75
2021/05/07 00:09:57;;;;;;;3.90;2.47;;;14.10;47.40;;;;;;4437232;29;20136;-74
2021/05/07 00:12:14;;;;;;;6.78;2.13;;;15.10;46.80;;;;;;4436840;29;20532;-74
2021/05/07 00:14:32;;;;;;;10.32;2.88;;;14.70;46.70;;;;;;4436819;29;20053;-74
2021/05/07 00:16:48;;;;;;;4.65;2.15;;;13.80;46.30;;;;;;4437508;29;20046;-74
2021/05/07 00:19:05;;;;;;;5.10;2.45;;;14.30;46.70;;;;;;4437620;29;20058;-74
2021/05/07 00:21:28;;;;;;;3.15;2.10;;;;;;;;;;4440821;29;20131;-75
2021/05/07 00:23:46;;;;;;;7.75;2.17;;;16.00;47.80;;;;;;4439449;29;20504;-76
2021/05/07 00:26:02;;;;;;;4.05;1.80;;;15.90;48.90;;;;;;4440329;29;20126;-74
2021/05/07 00:28:19;;;;;;;4.88;2.10;;;16.80;48.20;;;;;;4439528;29;20077;-74
2021/05/07 00:30:36;;;;;;;4.05;2.25;;;14.30;48.40;;;;;;4439966;29;20054;-74
2021/05/07 00:32:52;;;;;;;3.53;1.98;;;14.70;47.40;;;;;;4440852;29;20049;-72
2021/05/07 00:35:08;;;;;;;12.45;2.75;;;14.80;47.30;;;;;;4438532;29;20124;-72
2021/05/07 00:37:24;;;;;;;4.93;2.35;;;15.50;48.00;;;;;;4440933;29;20102;-73
2021/05/07 00:39:40;;;;;;;5.00;2.10;;;14.80;46.80;;;;;;4439762;29;20054;-72
2021/05/07 00:42:01;;;;;;;4.13;2.40;;;16.70;48.30;;;;;;4441398;29;20054;-74
2021/05/07 00:44:19;;;;;;;21.10;2.85;;;16.10;48.50;;;;;;4439547;29;20148;-72
2021/05/07 00:46:37;;;;;;;10.18;2.33;;;16.70;49.00;;;;;;4440959;29;20062;-72
2021/05/07 00:48:54;;;;;;;5.53;2.42;;;16.40;47.80;;;;;;4439751;29;20057;-72
2021/05/07 00:51:10;;;;;;;3.90;2.10;;;15.40;48.00;;;;;;4439161;29;20062;-72
2021/05/07 00:53:27;;;;;;;5.97;2.53;;;15.00;46.60;;;;;;4439539;29;20050;-73
2021/05/07 00:55:44;;;;;;;6.47;2.20;;;15.40;47.40;;;;;;4439107;29;20088;-72
2021/05/07 00:58:03;;;;;;;6.80;2.50;;;14.80;46.00;;;;;;4439975;29;20161;-73
2021/05/07 01:00:21;;;;;;;4.50;2.45;;;16.20;47.80;;;;;;4438441;29;20108;-73
2021/05/07 01:02:41;;;;;;;6.97;2.97;;;;;;;;;;4438726;29;20743;-72
2021/05/07 01:04:57;;;;;;;10.48;3.15;;;14.80;46.00;;;;;;4439816;29;20157;-73
2021/05/07 01:07:12;;;;;;;5.68;3.30;;;15.70;47.20;;;;;;4440167;29;20086;-72
2021/05/07 01:09:29;;;;;;;8.93;2.22;;;14.30;48.00;;;;;;4438076;29;20570;-73
2021/05/07 01:11:47;;;;;;;7.53;2.90;;;14.30;47.50;;;;;;4440735;29;20493;-72
2021/05/07 01:14:03;;;;;;;6.55;2.83;;;13.70;46.50;;;;;;4439307;29;20554;-72
2021/05/07 01:16:22;;;;;;;6.15;3.00;;;;;;;;;;4440618;29;20054;-71
2021/05/07 01:18:38;;;;;;;6.18;2.58;;;15.80;48.00;;;;;;4439138;29;20751;-72
2021/05/07 01:20:56;;;;;;;5.75;2.95;;;13.60;48.40;;;;;;4439065;29;20490;-72
2021/05/07 01:23:12;;;;;;;5.78;2.88;;;16.70;49.90;;;;;;4437520;29;20058;-71
2021/05/07 01:25:30;;;;;;;9.05;3.10;;;14.10;48.60;;;;;;4438715;29;20156;-71
2021/05/07 01:27:48;;;;;;;7.13;3.30;;;14.20;48.90;;;;;;4438236;29;20179;-73
2021/05/07 01:30:09;;;;;;;5.80;2.90;;;15.30;49.60;;;;;;4439560;29;20063;-72
2021/05/07 01:32:25;;;;;;;5.50;3.30;;;13.80;49.00;;;;;;4438680;29;20171;-73
2021/05/07 01:34:40;;;;;;;7.10;3.03;;;13.60;48.20;;;;;;4438331;29;20042;-73
2021/05/07 01:36:57;;;;;;;9.52;3.38;;;14.20;48.50;;;;;;4439449;29;20136;-71
2021/05/07 01:39:13;;;;;;;7.55;3.33;;;14.10;48.50;;;;;;4439437;29;20058;-72
2021/05/07 01:41:29;;;;;;;10.30;3.35;;;13.70;48.60;;;;;;4438975;29;20065;-73
2021/05/07 01:43:45;;;;;;;6.80;3.17;;;14.00;48.70;;;;;;4439199;29;20099;-72
2021/05/07 01:46:00;;;;;;;6.22;3.35;;;14.20;48.70;;;;;;4438151;29;20054;-73
2021/05/07 01:48:17;;;;;;;6.93;3.60;;;13.10;48.30;;;;;;4437723;29;20125;-73
2021/05/07 01:50:35;;;;;;;10.38;3.50;;;14.40;48.80;;;;;;4439775;29;20505;-72
2021/05/07 01:52:54;;;;;;;8.20;3.00;;;14.90;50.40;;;;;;4437233;29;20060;-72
2021/05/07 01:55:14;;;;;;;7.22;3.58;;;12.80;48.70;;;;;;4438462;29;20129;-72
2021/05/07 01:57:31;;;;;;;7.68;3.20;;;13.90;50.10;;;;;;4437081;29;20050;-73
2021/05/07 01:59:46;;;;;;;7.70;3.20;;;15.20;50.60;;;;;;4438263;29;20093;-72
2021/05/07 02:02:02;;;;;;;7.28;3.42;;;14.10;48.90;;;;;;4438230;29;20046;-72
2021/05/07 02:04:18;;;;;;;8.35;3.83;;;15.90;49.80;;;;;;4439634;29;20077;-72
2021/05/07 02:06:33;;;;;;;6.47;3.05;;;14.30;49.10;;;;;;4438416;29;20106;-72
2021/05/07 02:08:50;;;;;;;10.05;3.67;;;14.50;49.70;;;;;;4438117;29;20132;-72
2021/05/07 02:11:06;;;;;;;8.48;3.15;;;;;;;;;;4436649;29;20089;-72
2021/05/07 02:13:22;;;;;;;8.38;4.40;;;15.00;50.90;;;;;;4439089;29;20049;-72
2021/05/07 02:15:40;;;;;;;9.20;3.08;;;13.50;49.00;;;;;;4437088;29;20115;-72
2021/05/07 02:17:58;;;;;;;8.20;2.60;;;13.40;50.90;;;;;;4438790;29;20057;-71
2021/05/07 02:20:16;;;;;;;9.20;3.30;;;13.90;49.70;;;;;;4438517;29;20491;-72
2021/05/07 02:22:32;;;;;;;6.30;3.50;;;15.00;48.90;;;;;;4437554;29;20133;-73
2021/05/07 02:24:49;;;;;;;6.63;3.00;;;15.10;50.00;;;;;;4438842;29;20445;-72
2021/05/07 02:27:06;;;;;;;8.95;3.10;;;14.20;48.40;;;;;;4437286;29;20061;-72
2021/05/07 02:29:21;;;;;;;12.43;3.45;;;15.20;50.30;;;;;;4438820;29;20129;-72
2021/05/07 02:31:37;;;;;;;5.30;3.03;;;14.70;50.30;;;;;;4436663;29;20046;-73
2021/05/07 02:33:53;;;;;;;8.25;3.38;;;16.50;50.10;;;;;;4437631;29;20126;-71
2021/05/07 02:36:09;;;;;;;7.35;3.47;;;14.10;49.60;;;;;;4438156;29;20150;-72
2021/05/07 02:38:26;;;;;;;6.40;3.35;;;14.80;50.70;;;;;;4437776;29;20050;-72
2021/05/07 02:40:44;;;;;;;6.53;3.10;;;14.40;49.10;;;;;;4436317;29;20050;-72
2021/05/07 02:43:00;;;;;;;5.60;3.22;;;16.10;50.10;;;;;;4437656;29;20050;-73
2021/05/07 02:45:20;;;;;;;8.65;3.53;;;13.50;50.20;;;;;;4437110;29;20129;-73
2021/05/07 02:47:38;;;;;;;7.68;3.13;;;14.00;49.30;;;;;;4423952;29;20510;-73
2021/05/07 02:49:54;;;;;;;11.63;3.70;;;16.00;50.40;;;;;;4436596;29;20056;-73
2021/05/07 02:52:10;;;;;;;9.35;3.83;;;;;;;;;;4438695;29;20126;-73
2021/05/07 02:54:26;;;;;;;8.20;3.10;;;14.10;49.90;;;;;;4437685;29;20057;-72
2021/05/07 02:56:42;;;;;;;7.70;3.40;;;14.20;50.00;;;;;;4438627;29;20062;-73
2021/05/07 02:58:58;;;;;;;7.90;3.15;;;13.50;49.70;;;;;;4437866;29;20140;-72
2021/05/07 03:01:14;;;;;;;6.25;3.28;;;;;;;;;;4437085;29;20487;-73
2021/05/07 03:03:30;;;;;;;9.20;3.42;;;15.20;50.80;;;;;;4436825;29;20157;-73
2021/05/07 03:05:48;;;;;;;8.48;3.60;;;14.30;52.00;;;;;;4438121;29;20061;-72
2021/05/07 03:08:04;;;;;;;7.60;4.65;;;13.80;50.60;;;;;;4437862;29;20058;-72
2021/05/07 03:10:21;;;;;;;6.75;3.33;;;14.80;52.60;;;;;;4437711;29;20049;-72
2021/05/07 03:12:40;;;;;;;7.70;2.67;;;14.20;52.30;;;;;;4438166;29;20073;-73
2021/05/07 03:14:56;;;;;;;4.70;2.63;;;13.50;50.90;;;;;;4437381;29;20053;-72
2021/05/07 03:17:11;;;;;;;8.90;3.75;;;13.40;51.20;;;;;;4438256;29;20049;-71
2021/05/07 03:19:27;;;;;;;8.77;3.92;;;14.90;51.70;;;;;;4437265;29;20137;-73
2021/05/07 03:21:43;;;;;;;7.45;2.75;;;13.70;52.80;;;;;;4438296;29;20081;-72
2021/05/07 03:23:58;;;;;;;8.45;3.75;;;15.70;52.30;;;;;;4436993;29;20520;-73
2021/05/07 03:26:14;;;;;;;7.88;2.83;;;14.80;51.80;;;;;;4438572;29;20486;-72
2021/05/07 03:28:32;;;;;;;7.65;3.53;;;13.60;52.20;;;;;;4436954;29;20053;-72
2021/05/07 03:30:48;;;;;;;7.25;3.40;;;14.70;52.60;;;;;;4438085;29;20136;-73
2021/05/07 03:33:05;;;;;;;7.50;3.67;;;14.30;51.40;;;;;;4437018;29;20056;-72
2021/05/07 03:35:22;;;;;;;8.65;4.30;;;15.40;53.20;;;;;;4438063;29;20053;-72
2021/05/07 03:37:38;;;;;;;9.65;3.50;;;14.00;52.60;;;;;;4436985;29;20046;-72
2021/05/07 03:39:54;;;;;;;4.68;3.10;;;15.60;52.40;;;;;;4436606;29;20536;-72
2021/05/07 03:42:10;;;;;;;9.07;3.65;;;15.50;52.40;;;;;;4437205;29;20124;-72
2021/05/07 03:44:26;;;;;;;5.35;3.30;;;15.10;53.40;;;;;;4437639;29;20074;-72
2021/05/07 03:46:42;;;;;;;7.90;3.45;;;13.60;51.30;;;;;;4437445;29;20411;-72
2021/05/07 03:48:58;;;;;;;7.60;3.75;;;14.30;51.50;;;;;;4437346;29;20054;-72
2021/05/07 03:51:13;;;;;;;11.80;4.22;;;15.00;53.20;;;;;;4437421;29;20410;-74
2021/05/07 03:53:29;;;;;;;14.95;4.13;;;;;;;;;;4438437;29;20057;-71
2021/05/07 03:55:45;;;;;;;11.50;4.15;;;14.50;51.70;;;;;;4437479;29;20197;-72
2021/05/07 03:58:01;;;;;;;8.45;4.05;;;13.50;52.40;;;;;;4437046;29;20468;-74
2021/05/07 04:00:18;;;;;;;8.52;3.85;;;14.40;51.60;;;;;;4437890;29;20478;-72
2021/05/07 04:02:34;;;;;;;13.30;3.80;;;13.90;52.50;;;;;;4436811;29;20087;-72
2021/05/07 04:04:50;;;;;;;11.57;4.57;;;14.90;51.60;;;;;;4436624;29;20326;-73
2021/05/07 04:07:05;;;;;;;12.75;4.10;;;15.50;53.30;;;;;;4436894;29;20065;-73
2021/05/07 04:09:28;;;;;;;8.15;3.90;;;14.30;51.40;;;;;;4437975;29;20138;-73
2021/05/07 04:11:54;;;;;;;10.73;4.13;;;;;;;;;;4436696;29;20058;-73
2021/05/07 04:14:09;;;;;;;9.23;3.85;;;14.00;52.60;;;;;;4436550;29;20045;-72
2021/05/07 04:16:25;;;;;;;19.77;5.70;;;14.30;51.60;;;;;;4436897;29;20133;-73
2021/05/07 04:18:41;;;;;;;14.65;4.63;;;;;;;;;;4436603;29;20525;-72
2021/05/07 04:20:57;;;;;;;9.27;4.18;;;17.40;54.40;;;;;;4436804;29;20400;-72
2021/05/07 04:23:13;;;;;;;10.93;4.20;;;15.10;53.30;;;;;;4437498;29;20190;-71
2021/05/07 04:25:29;;;;;;;9.65;4.65;;;13.80;52.80;;;;;;4437334;29;20129;-72
2021/05/07 04:27:44;;;;;;;9.55;4.38;;;14.70;52.60;;;;;;4435867;29;20054;-72
2021/05/07 04:30:01;;;;;;;9.38;4.28;;;14.10;51.90;;;;;;4436865;29;20060;-73
2021/05/07 04:32:17;;;;;;;10.05;4.50;;;16.80;53.30;;;;;;4437385;29;20058;-73
2021/05/07 04:34:34;;;;;;;8.65;4.15;;;14.10;51.90;;;;;;4437116;29;20046;-72
2021/05/07 04:36:50;;;;;;;11.30;5.00;;;15.70;52.80;;;;;;4436895;29;20074;-72
2021/05/07 04:39:07;;;;;;;8.50;3.97;;;16.30;53.40;;;;;;4435969;29;20085;-71
2021/05/07 04:41:22;;;;;;;11.13;4.30;;;14.30;53.90;;;;;;4436833;29;20042;-72
2021/05/07 04:43:38;;;;;;;8.27;3.88;;;14.80;54.30;;;;;;4437501;29;20089;-72
2021/05/07 04:45:54;;;;;;;13.25;4.05;;;15.50;53.90;;;;;;4436535;29;20142;-71
2021/05/07 04:48:17;;;;;;;8.07;3.88;;;16.60;54.40;;;;;;4437527;29;20073;-72
2021/05/07 04:50:33;;;;;;;14.57;4.30;;;16.00;54.60;;;;;;4436064;29;20189;-73
2021/05/07 04:52:49;;;;;;;12.02;4.45;;;14.30;54.10;;;;;;4436302;29;20460;-72
2021/05/07 04:55:06;;;;;;;9.40;3.70;;;15.30;54.60;;;;;;4435927;29;20099;-73
2021/05/07 04:57:22;;;;;;;8.07;3.67;;;;;;;;;;4438914;29;20081;-74
2021/05/07 04:59:37;;;;;;;8.30;4.38;;;14.80;55.90;;;;;;4438636;29;20050;-73
2021/05/07 05:01:53;;;;;;;8.73;3.97;;;15.40;56.50;;;;;;4437377;29;20132;-73
2021/05/07 05:04:10;;;;;;;14.02;4.20;;;15.20;56.70;;;;;;4436190;29;20046;-73
2021/05/07 05:06:26;;;;;;;12.45;5.20;;;14.70;56.90;;;;;;4438157;29;20128;-73
2021/05/07 05:08:42;;;;;;;10.43;4.47;;;15.20;56.00;;;;;;4439842;29;20061;-72
2021/05/07 05:11:00;;;;;;;8.30;4.32;;;14.40;56.30;;;;;;4439763;29;20077;-73
2021/05/07 05:13:17;;;;;;;9.40;4.32;;;14.00;56.20;;;;;;4438268;29;20049;-72
2021/05/07 05:15:33;;;;;;;8.05;4.40;;;13.50;57.00;;;;;;4439606;29;20421;-71
2021/05/07 05:17:50;;;;;;;11.73;4.28;;;13.90;56.20;;;;;;4439858;29;20054;-72
2021/05/07 05:20:09;;;;;;;8.52;4.38;;;13.90;57.80;;;;;;4439074;29;20084;-72
2021/05/07 05:22:25;;;;;;;8.43;4.53;;;14.00;58.10;;;;;;4439935;29;20077;-71
2021/05/07 05:24:41;;;;;;;10.07;4.85;;;15.00;58.00;;;;;;4437271;29;20153;-72
2021/05/07 05:26:58;;;;;;;9.35;4.32;;;;;;;;;;4438364;29;20050;-73
2021/05/07 05:29:16;;;;;;;10.45;4.57;;;15.80;58.60;;;;;;4438531;29;20061;-74
2021/05/07 05:31:32;;;;;;;9.48;4.80;;;14.40;58.10;;;;;;4439511;29;20520;-71
2021/05/07 05:33:47;;;;;;;8.38;3.63;;;15.30;58.70;;;;;;4439492;29;20170;-70
2021/05/07 05:36:05;;;;;;;12.50;4.20;;;13.90;58.80;;;;;;4440346;29;20114;-72
2021/05/07 05:38:21;;;;;;;10.60;4.35;;;14.70;59.20;;;;;;4438588;29;20144;-72
2021/05/07 05:40:37;;;;;;;12.00;4.65;;;15.00;59.90;;;;;;4439636;29;20070;-72
2021/05/07 05:42:53;;;;;;;14.45;5.30;;;15.30;60.50;;;;;;4437035;29;20491;-73
2021/05/07 05:45:10;;;;;;;12.10;6.47;;;15.10;60.50;;;;;;4439323;29;20393;-73
2021/05/07 05:47:26;;;;;;;17.25;6.05;;;15.90;60.90;;;;;;4437065;29;20137;-72
2021/05/07 05:49:45;;;;;;;14.18;5.75;;;14.10;58.80;;;;;;4437665;29;20230;-72
2021/05/07 05:52:02;;;;;;;16.65;5.65;;;15.10;60.90;;;;;;4438014;29;20102;-72
2021/05/07 05:54:17;;;;;;;17.55;6.35;;;14.40;60.60;;;;;;4437089;29;20050;-73
2021/05/07 05:56:33;;;;;;;12.68;6.28;;;16.00;60.50;;;;;;4438394;29;20060;-74
2021/05/07 05:58:49;;;;;;;14.82;7.50;;;;;;;;;;4437003;29;20064;-76
2021/05/07 06:01:06;;;;;;;14.48;4.93;;;15.70;61.50;;;;;;4437886;29;20054;-76
2021/05/07 06:03:23;;;;;;;12.82;5.35;;;;;;;;;;4438851;29;20105;-76
2021/05/07 06:05:43;;;;;;;13.80;5.88;;;;;;;;;;4438167;29;20065;-76
2021/05/07 06:08:00;;;;;;;12.63;5.85;;;15.00;61.60;;;;;;4437592;29;20136;-74
2021/05/07 06:10:20;;;;;;;15.95;6.70;;;;;;;;;;4439458;29;20060;-74
2021/05/07 06:12:37;;;;;;;16.63;6.57;;;16.30;64.50;;;;;;4436639;29;20054;-76
2021/05/07 06:14:54;;;;;;;16.50;6.85;;;;;;;;;;4439665;29;20076;-77
2021/05/07 06:17:11;;;;;;;16.33;7.47;;;;;;;;;;4436145;29;20492;-81
2021/05/07 06:19:30;;;;;;;12.52;5.60;;;13.00;61.30;;;;;;4439173;29;20050;-71
2021/05/07 06:21:47;;;;;;;12.88;6.43;;;15.00;63.20;;;;;;4437894;29;20061;-73
2021/05/07 06:24:10;;;;;;;14.05;6.50;;;14.90;63.10;;;;;;4439593;29;20058;-73
2021/05/07 06:26:26;;;;;;;13.85;6.03;;;16.20;64.80;;;;;;4436152;29;20048;-72
2021/05/07 06:28:43;;;;;;;12.88;6.10;;;14.00;62.30;;;;;;4437039;29;20098;-72
2021/05/07 06:30:59;;;;;;;14.82;6.25;;;14.20;64.00;;;;;;4437616;29;20069;-72
2021/05/07 06:33:19;;;;;;;17.67;6.80;;;15.00;64.60;;;;;;4436884;29;20129;-73
2021/05/07 06:35:36;;;;;;;16.40;6.60;;;;;;;;;;4437909;29;20061;-74
2021/05/07 06:37:56;;;;;;;17.52;6.55;;;14.20;64.20;;;;;;4421529;29;20062;-72
2021/05/07 06:40:15;;;;;;;13.30;6.20;;;15.50;64.10;;;;;;4438241;29;20053;-72
2021/05/07 06:42:34;;;;;;;11.43;5.70;;;;;;;;;;4438144;29;20053;-72
2021/05/07 06:44:52;;;;;;;12.50;6.15;;;14.10;64.50;;;;;;4422077;29;20130;-72
2021/05/07 06:47:08;;;;;;;15.60;6.72;;;13.70;64.20;;;;;;4436088;29;20149;-72
2021/05/07 06:49:26;;;;;;;13.43;5.60;;;14.80;64.80;;;;;;4438555;29;20113;-73
2021/05/07 06:51:42;;;;;;;16.30;6.13;;;14.80;65.00;;;;;;4420692;29;20518;-73
2021/05/07 06:53:57;;;;;;;12.23;6.05;;;14.10;64.50;;;;;;4438250;29;20494;-73
2021/05/07 06:56:15;;;;;;;11.95;5.60;;;;;;;;;;4436884;29;20489;-72
2021/05/07 06:58:32;;;;;;;14.38;6.40;;;;;;;;;;4437981;29;20054;-74
2021/05/07 07:00:48;;;;;;;13.10;5.63;;;;;;;;;;4436542;29;20050;-73
2021/05/07 07:03:12;;;;;;;14.60;5.60;;;;;;;;;;4421973;29;20107;-75
2021/05/07 07:05:31;;;;;;;14.85;6.10;;;13.90;64.80;;;;;;4437640;29;20046;-75
2021/05/07 07:07:47;;;;;;;13.82;6.20;;;14.20;65.00;;;;;;4438203;29;20433;-77
2021/05/07 07:10:10;;;;;;;14.77;6.03;;;15.50;65.90;;;;;;4438263;29;20046;-76
2021/05/07 07:12:27;;;;;;;10.13;5.60;;;14.90;64.40;;;;;;4436759;29;20085;-75
2021/05/07 07:14:46;;;;;;;11.52;5.82;;;14.60;65.40;;;;;;4436816;29;20117;-76
2021/05/07 07:17:03;;;;;;;10.20;5.03;;;14.60;65.70;;;;;;4437183;29;20490;-74
2021/05/07 07:19:20;;;;;;;8.80;5.55;;;16.30;65.40;;;;;;4438461;29;20058;-76
2021/05/07 07:21:53;;;;;;;12.00;6.10;;;;;;;;;;4436885;29;20084;-75
2021/05/07 07:24:10;;;;;;;12.07;5.50;;;14.40;64.20;;;;;;4437281;29;20057;-74
2021/05/07 07:26:26;;;;;;;18.67;5.90;;;15.00;65.90;;;;;;4436646;29;20549;-74
2021/05/07 07:28:47;;;;;;;14.10;6.30;;;16.70;65.80;;;;;;4437570;29;20081;-75
2021/05/07 07:31:04;;;;;;;10.85;5.63;;;14.00;64.20;;;;;;4436682;29;20082;-75
2021/05/07 07:33:20;;;;;;;9.38;5.13;;;16.20;65.50;;;;;;4436575;29;20049;-75
2021/05/07 07:35:37;;;;;;;8.68;5.35;;;13.90;63.90;;;;;;4435373;29;20554;-75
2021/05/07 07:37:53;;;;;;;10.43;5.20;;;14.30;65.40;;;;;;4437681;29;20472;-74
2021/05/07 07:40:12;;;;;;;16.08;5.82;;;16.60;66.70;;;;;;4437017;29;20054;-74
2021/05/07 07:42:28;;;;;;;11.32;5.47;;;;;;;;;;4436126;29;20153;-75
2021/05/07 07:44:47;;;;;;;13.18;4.72;;;16.90;66.80;;;;;;4437302;29;20062;-74
2021/05/07 07:47:03;;;;;;;12.68;5.95;;;16.40;66.60;;;;;;4435576;29;20053;-75
2021/05/07 07:49:19;;;;;;;11.23;5.80;;;17.50;67.00;;;;;;4437240;29;20060;-75
2021/05/07 07:51:35;;;;;;;11.50;5.93;;;16.20;65.00;;;;;;4436849;29;20118;-76
2021/05/07 07:53:51;;;;;;;10.43;4.70;;;;;;;;;;4435420;29;20065;-76
2021/05/07 07:56:07;;;;;;;13.07;5.15;;;16.40;64.80;;;;;;4435406;29;20081;-76
2021/05/07 07:58:22;;;;;;;9.10;4.53;;;17.00;66.40;;;;;;4437361;29;20046;-75
2021/05/07 08:00:40;;;;;;;8.18;4.13;;;14.30;64.50;;;;;;4436416;29;20475;-75
2021/05/07 08:02:56;;;;;;;7.93;4.32;;;16.50;65.90;;;;;;4437687;29;20050;-75
2021/05/07 08:05:13;;;;;;;8.23;4.68;;;16.20;65.80;;;;;;4434864;29;20143;-75
2021/05/07 08:07:29;;;;;;;7.60;3.45;;;;;;;;;;4437843;29;20050;-74
2021/05/07 08:09:45;;;;;;;14.32;5.85;;;16.40;66.10;;;;;;4436114;29;20057;-76
